sensor_id;sensor_type;location;lat;lon;timestamp;P1;durP1;ratioP1;P2;durP2;ratioP2
77206;SDS011;66190;50.708;7.906;2023-01-13T00:02:08;3.50;;;0.70;;
77206;SDS011;66190;50.708;7.906;2023-01-13T00:04:34;3.70;;;0.70;;
77206;SDS011;66190;50.708;7.906;2023-01-13T00:07:00;2.42;;;0.50;;
77206;SDS011;66190;50.708;7.906;2023-01-13T00:09:25;3.83;;;0.80;;
77206;SDS011;66190;50.708;7.906;2023-01-13T00:11:51;2.33;;;0.60;;
77206;SDS011;66190;50.708;7.906;2023-01-13T00:14:17;3.72;;;0.60;;
77206;SDS011;66190;50.708;7.906;2023-01-13T00:16:42;3.80;;;0.80;;
77206;SDS011;66190;50.708;7.906;2023-01-13T00:19:08;3.78;;;0.73;;
77206;SDS011;66190;50.708;7.906;2023-01-13T00:21:33;2.97;;;0.50;;
77206;SDS011;66190;50.708;7.906;2023-01-13T00:24:00;4.13;;;0.60;;
77206;SDS011;66190;50.708;7.906;2023-01-13T00:26:26;2.70;;;0.70;;
77206;SDS011;66190;50.708;7.906;2023-01-13T00:28:55;3.17;;;0.55;;
77206;SDS011;66190;50.708;7.906;2023-01-13T00:31:21;3.80;;;0.80;;
77206;SDS011;66190;50.708;7.906;2023-01-13T00:33:47;3.30;;;0.97;;
77206;SDS011;66190;50.708;7.906;2023-01-13T00:36:15;3.30;;;0.70;;
77206;SDS011;66190;50.708;7.906;2023-01-13T00:38:42;2.38;;;0.60;;
77206;SDS011;66190;50.708;7.906;2023-01-13T00:41:11;3.85;;;0.70;;
77206;SDS011;66190;50.708;7.906;2023-01-13T00:43:38;3.35;;;0.55;;
77206;SDS011;66190;50.708;7.906;2023-01-13T00:46:05;3.20;;;0.60;;
77206;SDS011;66190;50.708;7.906;2023-01-13T00:48:32;2.50;;;0.50;;
77206;SDS011;66190;50.708;7.906;2023-01-13T00:51:02;3.50;;;0.68;;
77206;SDS011;66190;50.708;7.906;2023-01-13T00:53:37;2.97;;;0.60;;
77206;SDS011;66190;50.708;7.906;2023-01-13T00:56:12;2.47;;;0.60;;
77206;SDS011;66190;50.708;7.906;2023-01-13T00:58:43;2.80;;;0.60;;
77206;SDS011;66190;50.708;7.906;2023-01-13T01:01:11;4.18;;;0.60;;
77206;SDS011;66190;50.708;7.906;2023-01-13T01:03:41;3.08;;;0.55;;
77206;SDS011;66190;50.708;7.906;2023-01-13T01:06:18;2.63;;;1.00;;
77206;SDS011;66190;50.708;7.906;2023-01-13T01:08:46;3.30;;;0.70;;
77206;SDS011;66190;50.708;7.906;2023-01-13T01:11:13;2.80;;;0.50;;
77206;SDS011;66190;50.708;7.906;2023-01-13T01:13:40;2.72;;;0.60;;
77206;SDS011;66190;50.708;7.906;2023-01-13T01:16:07;3.40;;;0.43;;
77206;SDS011;66190;50.708;7.906;2023-01-13T01:18:40;2.63;;;0.65;;
77206;SDS011;66190;50.708;7.906;2023-01-13T01:21:07;2.70;;;0.60;;
77206;SDS011;66190;50.708;7.906;2023-01-13T01:23:34;2.70;;;0.50;;
77206;SDS011;66190;50.708;7.906;2023-01-13T01:26:07;3.03;;;0.60;;
77206;SDS011;66190;50.708;7.906;2023-01-13T01:28:36;3.53;;;0.70;;
77206;SDS011;66190;50.708;7.906;2023-01-13T01:31:06;2.75;;;0.50;;
77206;SDS011;66190;50.708;7.906;2023-01-13T01:33:33;3.50;;;0.82;;
77206;SDS011;66190;50.708;7.906;2023-01-13T01:35:59;3.00;;;0.50;;
77206;SDS011;66190;50.708;7.906;2023-01-13T01:38:26;4.30;;;0.70;;
77206;SDS011;66190;50.708;7.906;2023-01-13T01:40:51;3.43;;;0.60;;
77206;SDS011;66190;50.708;7.906;2023-01-13T01:43:18;2.13;;;0.40;;
77206;SDS011;66190;50.708;7.906;2023-01-13T01:46:04;3.30;;;0.60;;
77206;SDS011;66190;50.708;7.906;2023-01-13T01:48:39;3.70;;;0.50;;
77206;SDS011;66190;50.708;7.906;2023-01-13T01:51:07;3.05;;;0.70;;
77206;SDS011;66190;50.708;7.906;2023-01-13T01:53:37;3.42;;;0.50;;
77206;SDS011;66190;50.708;7.906;2023-01-13T01:56:03;2.80;;;0.60;;
77206;SDS011;66190;50.708;7.906;2023-01-13T01:58:34;3.47;;;0.70;;
77206;SDS011;66190;50.708;7.906;2023-01-13T02:01:06;2.67;;;0.60;;
77206;SDS011;66190;50.708;7.906;2023-01-13T02:03:33;2.88;;;0.60;;
77206;SDS011;66190;50.708;7.906;2023-01-13T02:06:01;3.72;;;0.70;;
77206;SDS011;66190;50.708;7.906;2023-01-13T02:08:27;3.28;;;0.73;;
77206;SDS011;66190;50.708;7.906;2023-01-13T02:10:53;3.37;;;0.83;;
77206;SDS011;66190;50.708;7.906;2023-01-13T02:13:19;2.70;;;0.40;;
77206;SDS011;66190;50.708;7.906;2023-01-13T02:16:20;2.90;;;0.60;;
77206;SDS011;66190;50.708;7.906;2023-01-13T02:18:45;1.95;;;0.40;;
77206;SDS011;66190;50.708;7.906;2023-01-13T02:27:31;6.10;;;0.82;;
77206;SDS011;66190;50.708;7.906;2023-01-13T02:30:16;3.05;;;0.65;;
77206;SDS011;66190;50.708;7.906;2023-01-13T02:33:33;3.10;;;0.50;;
77206;SDS011;66190;50.708;7.906;2023-01-13T02:38:39;4.43;;;0.50;;
77206;SDS011;66190;50.708;7.906;2023-01-13T02:41:38;2.42;;;0.35;;
77206;SDS011;66190;50.708;7.906;2023-01-13T02:44:47;5.00;;;0.97;;
77206;SDS011;66190;50.708;7.906;2023-01-13T02:47:20;3.15;;;0.70;;
77206;SDS011;66190;50.708;7.906;2023-01-13T02:49:50;2.15;;;0.40;;
77206;SDS011;66190;50.708;7.906;2023-01-13T02:52:28;2.70;;;0.60;;
77206;SDS011;66190;50.708;7.906;2023-01-13T02:55:09;3.58;;;0.60;;
77206;SDS011;66190;50.708;7.906;2023-01-13T02:57:42;2.47;;;0.60;;
77206;SDS011;66190;50.708;7.906;2023-01-13T03:00:09;2.65;;;0.45;;
77206;SDS011;66190;50.708;7.906;2023-01-13T03:02:37;6.63;;;0.80;;
77206;SDS011;66190;50.708;7.906;2023-01-13T03:05:03;4.68;;;0.70;;
77206;SDS011;66190;50.708;7.906;2023-01-13T03:07:38;4.73;;;0.90;;
77206;SDS011;66190;50.708;7.906;2023-01-13T03:12:54;3.67;;;0.63;;
77206;SDS011;66190;50.708;7.906;2023-01-13T03:15:39;4.18;;;0.85;;
77206;SDS011;66190;50.708;7.906;2023-01-13T03:20:52;4.77;;;0.80;;
77206;SDS011;66190;50.708;7.906;2023-01-13T03:23:36;3.35;;;0.60;;
77206;SDS011;66190;50.708;7.906;2023-01-13T03:26:14;3.08;;;0.70;;
77206;SDS011;66190;50.708;7.906;2023-01-13T03:29:10;3.60;;;0.60;;
77206;SDS011;66190;50.708;7.906;2023-01-13T03:32:17;3.58;;;0.60;;
77206;SDS011;66190;50.708;7.906;2023-01-13T03:35:12;5.07;;;0.80;;
77206;SDS011;66190;50.708;7.906;2023-01-13T03:37:45;6.53;;;0.50;;
77206;SDS011;66190;50.708;7.906;2023-01-13T03:40:19;2.70;;;0.63;;
77206;SDS011;66190;50.708;7.906;2023-01-13T03:42:52;3.65;;;0.60;;
77206;SDS011;66190;50.708;7.906;2023-01-13T03:45:40;4.40;;;0.80;;
77206;SDS011;66190;50.708;7.906;2023-01-13T03:48:12;3.27;;;0.40;;
77206;SDS011;66190;50.708;7.906;2023-01-13T03:50:49;1.63;;;0.30;;
77206;SDS011;66190;50.708;7.906;2023-01-13T03:55:50;2.40;;;0.50;;
77206;SDS011;66190;50.708;7.906;2023-01-13T03:58:40;3.35;;;0.70;;
77206;SDS011;66190;50.708;7.906;2023-01-13T04:03:41;3.28;;;0.60;;
77206;SDS011;66190;50.708;7.906;2023-01-13T04:06:32;2.47;;;0.50;;
77206;SDS011;66190;50.708;7.906;2023-01-13T04:09:51;2.95;;;0.70;;
77206;SDS011;66190;50.708;7.906;2023-01-13T04:12:02;3.05;;;0.60;;
77206;SDS011;66190;50.708;7.906;2023-01-13T04:14:35;3.20;;;0.50;;
77206;SDS011;66190;50.708;7.906;2023-01-13T04:17:01;4.05;;;0.52;;
77206;SDS011;66190;50.708;7.906;2023-01-13T04:19:27;2.97;;;0.50;;
77206;SDS011;66190;50.708;7.906;2023-01-13T04:21:52;4.37;;;0.70;;
77206;SDS011;66190;50.708;7.906;2023-01-13T04:24:18;4.57;;;0.90;;
77206;SDS011;66190;50.708;7.906;2023-01-13T04:26:44;4.18;;;0.65;;
77206;SDS011;66190;50.708;7.906;2023-01-13T04:29:09;3.40;;;0.70;;
77206;SDS011;66190;50.708;7.906;2023-01-13T04:31:35;5.10;;;0.70;;
77206;SDS011;66190;50.708;7.906;2023-01-13T04:34:02;3.30;;;0.50;;
77206;SDS011;66190;50.708;7.906;2023-01-13T04:36:27;3.30;;;0.50;;
77206;SDS011;66190;50.708;7.906;2023-01-13T04:38:53;2.73;;;0.40;;
77206;SDS011;66190;50.708;7.906;2023-01-13T04:41:19;6.15;;;1.08;;
77206;SDS011;66190;50.708;7.906;2023-01-13T04:43:45;4.90;;;0.68;;
77206;SDS011;66190;50.708;7.906;2023-01-13T04:46:10;5.53;;;0.60;;
77206;SDS011;66190;50.708;7.906;2023-01-13T04:48:36;7.47;;;1.03;;
77206;SDS011;66190;50.708;7.906;2023-01-13T04:51:02;4.30;;;0.40;;
77206;SDS011;66190;50.708;7.906;2023-01-13T04:53:27;4.23;;;0.70;;
77206;SDS011;66190;50.708;7.906;2023-01-13T04:55:53;5.47;;;0.70;;
77206;SDS011;66190;50.708;7.906;2023-01-13T04:58:19;3.27;;;0.50;;
77206;SDS011;66190;50.708;7.906;2023-01-13T05:00:45;3.15;;;0.50;;
77206;SDS011;66190;50.708;7.906;2023-01-13T05:03:10;5.00;;;0.90;;
77206;SDS011;66190;50.708;7.906;2023-01-13T05:05:37;3.72;;;0.60;;
77206;SDS011;66190;50.708;7.906;2023-01-13T05:08:03;6.68;;;1.30;;
77206;SDS011;66190;50.708;7.906;2023-01-13T05:10:29;9.05;;;2.75;;
77206;SDS011;66190;50.708;7.906;2023-01-13T05:12:55;11.93;;;3.47;;
77206;SDS011;66190;50.708;7.906;2023-01-13T05:15:39;16.25;;;5.43;;
77206;SDS011;66190;50.708;7.906;2023-01-13T05:18:24;14.18;;;5.07;;
77206;SDS011;66190;50.708;7.906;2023-01-13T05:20:51;9.13;;;2.60;;
77206;SDS011;66190;50.708;7.906;2023-01-13T05:23:17;11.38;;;2.95;;
77206;SDS011;66190;50.708;7.906;2023-01-13T05:26:01;8.90;;;2.03;;
77206;SDS011;66190;50.708;7.906;2023-01-13T05:28:31;8.73;;;2.17;;
77206;SDS011;66190;50.708;7.906;2023-01-13T05:30:57;6.35;;;1.00;;
77206;SDS011;66190;50.708;7.906;2023-01-13T05:33:23;4.88;;;0.70;;
77206;SDS011;66190;50.708;7.906;2023-01-13T05:35:49;5.90;;;1.13;;
77206;SDS011;66190;50.708;7.906;2023-01-13T05:38:14;4.87;;;0.97;;
77206;SDS011;66190;50.708;7.906;2023-01-13T05:40:42;5.55;;;0.65;;
77206;SDS011;66190;50.708;7.906;2023-01-13T05:43:26;7.68;;;0.70;;
77206;SDS011;66190;50.708;7.906;2023-01-13T05:48:21;6.45;;;0.80;;
77206;SDS011;66190;50.708;7.906;2023-01-13T05:50:48;7.63;;;1.10;;
77206;SDS011;66190;50.708;7.906;2023-01-13T05:53:15;5.32;;;0.90;;
77206;SDS011;66190;50.708;7.906;2023-01-13T05:55:41;7.45;;;1.10;;
77206;SDS011;66190;50.708;7.906;2023-01-13T05:58:08;9.23;;;1.20;;
77206;SDS011;66190;50.708;7.906;2023-01-13T06:00:34;5.65;;;0.95;;
77206;SDS011;66190;50.708;7.906;2023-01-13T06:03:01;4.80;;;0.73;;
77206;SDS011;66190;50.708;7.906;2023-01-13T06:05:27;5.20;;;1.05;;
77206;SDS011;66190;50.708;7.906;2023-01-13T06:07:57;5.45;;;0.50;;
77206;SDS011;66190;50.708;7.906;2023-01-13T06:10:26;5.13;;;0.70;;
77206;SDS011;66190;50.708;7.906;2023-01-13T06:12:52;6.85;;;0.75;;
77206;SDS011;66190;50.708;7.906;2023-01-13T06:15:18;5.60;;;0.80;;
77206;SDS011;66190;50.708;7.906;2023-01-13T06:17:44;4.85;;;0.90;;
77206;SDS011;66190;50.708;7.906;2023-01-13T06:20:11;3.75;;;0.45;;
77206;SDS011;66190;50.708;7.906;2023-01-13T06:22:38;5.43;;;0.90;;
77206;SDS011;66190;50.708;7.906;2023-01-13T06:25:07;7.80;;;1.00;;
77206;SDS011;66190;50.708;7.906;2023-01-13T06:27:38;7.05;;;0.85;;
77206;SDS011;66190;50.708;7.906;2023-01-13T06:30:04;6.80;;;0.80;;
77206;SDS011;66190;50.708;7.906;2023-01-13T06:32:32;9.32;;;1.17;;
77206;SDS011;66190;50.708;7.906;2023-01-13T06:35:04;4.45;;;0.60;;
77206;SDS011;66190;50.708;7.906;2023-01-13T06:37:33;6.27;;;0.73;;
77206;SDS011;66190;50.708;7.906;2023-01-13T06:40:00;7.03;;;0.70;;
77206;SDS011;66190;50.708;7.906;2023-01-13T06:42:29;7.32;;;0.93;;
77206;SDS011;66190;50.708;7.906;2023-01-13T06:45:17;6.45;;;0.75;;
77206;SDS011;66190;50.708;7.906;2023-01-13T06:47:43;5.70;;;0.85;;
77206;SDS011;66190;50.708;7.906;2023-01-13T06:50:09;5.50;;;1.13;;
77206;SDS011;66190;50.708;7.906;2023-01-13T06:52:35;5.40;;;0.80;;
77206;SDS011;66190;50.708;7.906;2023-01-13T06:55:01;4.53;;;0.40;;
77206;SDS011;66190;50.708;7.906;2023-01-13T06:57:27;6.47;;;0.85;;
77206;SDS011;66190;50.708;7.906;2023-01-13T06:59:53;10.17;;;0.93;;
77206;SDS011;66190;50.708;7.906;2023-01-13T07:02:18;4.00;;;0.70;;
77206;SDS011;66190;50.708;7.906;2023-01-13T07:04:44;6.53;;;0.73;;
77206;SDS011;66190;50.708;7.906;2023-01-13T07:07:11;6.55;;;0.50;;
77206;SDS011;66190;50.708;7.906;2023-01-13T07:09:37;5.70;;;0.60;;
77206;SDS011;66190;50.708;7.906;2023-01-13T07:12:03;7.53;;;0.68;;
77206;SDS011;66190;50.708;7.906;2023-01-13T07:14:29;6.43;;;0.70;;
77206;SDS011;66190;50.708;7.906;2023-01-13T07:17:13;8.57;;;0.63;;
77206;SDS011;66190;50.708;7.906;2023-01-13T07:19:39;7.32;;;0.80;;
77206;SDS011;66190;50.708;7.906;2023-01-13T07:22:04;6.87;;;0.87;;
77206;SDS011;66190;50.708;7.906;2023-01-13T07:24:30;5.80;;;1.00;;
77206;SDS011;66190;50.708;7.906;2023-01-13T07:26:56;7.80;;;0.90;;
77206;SDS011;66190;50.708;7.906;2023-01-13T07:29:21;6.30;;;0.98;;
77206;SDS011;66190;50.708;7.906;2023-01-13T07:31:47;5.60;;;0.73;;
77206;SDS011;66190;50.708;7.906;2023-01-13T07:34:13;10.90;;;1.15;;
77206;SDS011;66190;50.708;7.906;2023-01-13T07:36:39;6.43;;;0.93;;
77206;SDS011;66190;50.708;7.906;2023-01-13T07:39:04;6.22;;;0.82;;
77206;SDS011;66190;50.708;7.906;2023-01-13T07:41:30;7.13;;;1.20;;
77206;SDS011;66190;50.708;7.906;2023-01-13T07:44:14;7.35;;;1.33;;
77206;SDS011;66190;50.708;7.906;2023-01-13T07:46:40;8.55;;;1.52;;
77206;SDS011;66190;50.708;7.906;2023-01-13T07:49:06;6.30;;;0.80;;
77206;SDS011;66190;50.708;7.906;2023-01-13T07:51:36;6.53;;;1.15;;
77206;SDS011;66190;50.708;7.906;2023-01-13T07:54:03;6.72;;;0.80;;
77206;SDS011;66190;50.708;7.906;2023-01-13T07:56:29;6.43;;;0.97;;
77206;SDS011;66190;50.708;7.906;2023-01-13T07:58:55;10.82;;;1.30;;
77206;SDS011;66190;50.708;7.906;2023-01-13T08:01:22;8.43;;;1.55;;
77206;SDS011;66190;50.708;7.906;2023-01-13T08:03:48;13.03;;;2.50;;
77206;SDS011;66190;50.708;7.906;2023-01-13T08:06:13;8.60;;;1.30;;
77206;SDS011;66190;50.708;7.906;2023-01-13T08:08:39;7.40;;;2.13;;
77206;SDS011;66190;50.708;7.906;2023-01-13T08:11:06;10.80;;;1.30;;
77206;SDS011;66190;50.708;7.906;2023-01-13T08:13:32;9.10;;;1.80;;
77206;SDS011;66190;50.708;7.906;2023-01-13T08:16:05;11.15;;;3.90;;
77206;SDS011;66190;50.708;7.906;2023-01-13T08:18:33;8.43;;;1.50;;
77206;SDS011;66190;50.708;7.906;2023-01-13T08:21:00;5.43;;;1.15;;
77206;SDS011;66190;50.708;7.906;2023-01-13T08:23:28;10.63;;;2.03;;
77206;SDS011;66190;50.708;7.906;2023-01-13T08:25:53;9.23;;;2.13;;
77206;SDS011;66190;50.708;7.906;2023-01-13T08:28:23;8.65;;;1.65;;
77206;SDS011;66190;50.708;7.906;2023-01-13T08:30:48;5.60;;;1.67;;
77206;SDS011;66190;50.708;7.906;2023-01-13T08:33:16;7.25;;;1.35;;
77206;SDS011;66190;50.708;7.906;2023-01-13T08:35:42;6.82;;;1.00;;
77206;SDS011;66190;50.708;7.906;2023-01-13T08:38:08;3.67;;;0.63;;
77206;SDS011;66190;50.708;7.906;2023-01-13T08:40:33;4.97;;;0.80;;
77206;SDS011;66190;50.708;7.906;2023-01-13T08:42:59;7.88;;;1.30;;
77206;SDS011;66190;50.708;7.906;2023-01-13T08:45:26;7.43;;;1.08;;
77206;SDS011;66190;50.708;7.906;2023-01-13T08:47:52;8.37;;;1.47;;
77206;SDS011;66190;50.708;7.906;2023-01-13T08:50:18;5.35;;;1.42;;
77206;SDS011;66190;50.708;7.906;2023-01-13T08:52:44;8.23;;;2.95;;
77206;SDS011;66190;50.708;7.906;2023-01-13T08:55:10;8.67;;;2.40;;
77206;SDS011;66190;50.708;7.906;2023-01-13T08:57:36;9.38;;;1.55;;
77206;SDS011;66190;50.708;7.906;2023-01-13T09:00:03;7.85;;;1.63;;
77206;SDS011;66190;50.708;7.906;2023-01-13T09:02:30;11.75;;;3.90;;
77206;SDS011;66190;50.708;7.906;2023-01-13T09:04:56;10.03;;;2.97;;
77206;SDS011;66190;50.708;7.906;2023-01-13T09:07:21;10.40;;;3.35;;
77206;SDS011;66190;50.708;7.906;2023-01-13T09:09:47;10.43;;;3.50;;
77206;SDS011;66190;50.708;7.906;2023-01-13T09:12:13;8.53;;;2.53;;
77206;SDS011;66190;50.708;7.906;2023-01-13T09:14:59;8.23;;;2.38;;
77206;SDS011;66190;50.708;7.906;2023-01-13T09:17:25;12.75;;;3.28;;
77206;SDS011;66190;50.708;7.906;2023-01-13T09:19:51;8.95;;;1.85;;
77206;SDS011;66190;50.708;7.906;2023-01-13T09:22:17;9.23;;;3.00;;
77206;SDS011;66190;50.708;7.906;2023-01-13T09:24:44;11.00;;;3.40;;
77206;SDS011;66190;50.708;7.906;2023-01-13T09:27:10;8.77;;;2.50;;
77206;SDS011;66190;50.708;7.906;2023-01-13T09:29:37;14.32;;;4.57;;
77206;SDS011;66190;50.708;7.906;2023-01-13T09:32:03;8.07;;;2.80;;
77206;SDS011;66190;50.708;7.906;2023-01-13T09:34:29;8.82;;;2.55;;
77206;SDS011;66190;50.708;7.906;2023-01-13T09:37:13;15.63;;;4.03;;
77206;SDS011;66190;50.708;7.906;2023-01-13T09:39:39;8.30;;;2.00;;
77206;SDS011;66190;50.708;7.906;2023-01-13T09:42:17;12.20;;;2.03;;
77206;SDS011;66190;50.708;7.906;2023-01-13T09:45:10;10.63;;;1.90;;
77206;SDS011;66190;50.708;7.906;2023-01-13T09:52:38;6.80;;;1.47;;
77206;SDS011;66190;50.708;7.906;2023-01-13T09:55:47;10.63;;;1.50;;
77206;SDS011;66190;50.708;7.906;2023-01-13T09:57:58;10.90;;;1.38;;
77206;SDS011;66190;50.708;7.906;2023-01-13T10:00:28;7.60;;;1.20;;
77206;SDS011;66190;50.708;7.906;2023-01-13T10:05:51;10.73;;;1.50;;
77206;SDS011;66190;50.708;7.906;2023-01-13T10:08:26;10.30;;;1.77;;
77206;SDS011;66190;50.708;7.906;2023-01-13T10:10:55;11.98;;;2.53;;
77206;SDS011;66190;50.708;7.906;2023-01-13T10:13:24;8.00;;;1.35;;
77206;SDS011;66190;50.708;7.906;2023-01-13T10:24:01;9.85;;;1.38;;
77206;SDS011;66190;50.708;7.906;2023-01-13T10:28:58;8.10;;;1.27;;
77206;SDS011;66190;50.708;7.906;2023-01-13T10:31:24;8.80;;;1.30;;
77206;SDS011;66190;50.708;7.906;2023-01-13T10:33:57;9.65;;;1.35;;
77206;SDS011;66190;50.708;7.906;2023-01-13T10:36:24;8.20;;;1.07;;
77206;SDS011;66190;50.708;7.906;2023-01-13T10:38:50;7.30;;;1.02;;
77206;SDS011;66190;50.708;7.906;2023-01-13T10:44:09;7.38;;;0.90;;
77206;SDS011;66190;50.708;7.906;2023-01-13T10:46:54;9.73;;;1.47;;
77206;SDS011;66190;50.708;7.906;2023-01-13T10:49:32;6.40;;;1.02;;
77206;SDS011;66190;50.708;7.906;2023-01-13T10:52:03;5.53;;;0.70;;
77206;SDS011;66190;50.708;7.906;2023-01-13T10:54:52;6.90;;;1.05;;
77206;SDS011;66190;50.708;7.906;2023-01-13T10:59:47;6.80;;;0.90;;
77206;SDS011;66190;50.708;7.906;2023-01-13T11:02:16;6.78;;;1.00;;
77206;SDS011;66190;50.708;7.906;2023-01-13T11:05:07;9.82;;;1.25;;
77206;SDS011;66190;50.708;7.906;2023-01-13T11:10:09;8.67;;;1.30;;
77206;SDS011;66190;50.708;7.906;2023-01-13T11:15:24;10.52;;;1.30;;
77206;SDS011;66190;50.708;7.906;2023-01-13T11:18:12;7.45;;;1.50;;
77206;SDS011;66190;50.708;7.906;2023-01-13T11:20:58;10.73;;;1.20;;
77206;SDS011;66190;50.708;7.906;2023-01-13T11:24:00;9.68;;;1.65;;
77206;SDS011;66190;50.708;7.906;2023-01-13T11:26:40;7.10;;;1.20;;
77206;SDS011;66190;50.708;7.906;2023-01-13T11:32:19;12.18;;;1.80;;
77206;SDS011;66190;50.708;7.906;2023-01-13T11:34:49;8.37;;;1.23;;
77206;SDS011;66190;50.708;7.906;2023-01-13T11:37:22;8.07;;;1.08;;
77206;SDS011;66190;50.708;7.906;2023-01-13T11:40:05;9.05;;;1.45;;
77206;SDS011;66190;50.708;7.906;2023-01-13T11:46:01;10.75;;;1.63;;
77206;SDS011;66190;50.708;7.906;2023-01-13T11:48:28;12.60;;;1.30;;
77206;SDS011;66190;50.708;7.906;2023-01-13T11:51:02;9.43;;;1.38;;
77206;SDS011;66190;50.708;7.906;2023-01-13T11:53:59;10.68;;;1.40;;
77206;SDS011;66190;50.708;7.906;2023-01-13T12:07:38;11.25;;;2.00;;
77206;SDS011;66190;50.708;7.906;2023-01-13T12:15:34;8.43;;;1.60;;
77206;SDS011;66190;50.708;7.906;2023-01-13T12:26:26;12.17;;;1.20;;
77206;SDS011;66190;50.708;7.906;2023-01-13T12:31:30;13.95;;;3.80;;
77206;SDS011;66190;50.708;7.906;2023-01-13T12:37:18;14.40;;;3.15;;
77206;SDS011;66190;50.708;7.906;2023-01-13T12:42:18;11.52;;;3.30;;
77206;SDS011;66190;50.708;7.906;2023-01-13T12:45:25;8.25;;;2.05;;
77206;SDS011;66190;50.708;7.906;2023-01-13T12:47:53;16.70;;;2.78;;
77206;SDS011;66190;50.708;7.906;2023-01-13T12:52:58;19.00;;;4.57;;
77206;SDS011;66190;50.708;7.906;2023-01-13T12:56:17;11.13;;;3.10;;
77206;SDS011;66190;50.708;7.906;2023-01-13T12:58:52;9.57;;;1.35;;
77206;SDS011;66190;50.708;7.906;2023-01-13T13:01:40;7.88;;;1.90;;
77206;SDS011;66190;50.708;7.906;2023-01-13T13:04:10;11.63;;;2.83;;
77206;SDS011;66190;50.708;7.906;2023-01-13T13:07:09;8.13;;;1.10;;
77206;SDS011;66190;50.708;7.906;2023-01-13T13:09:42;8.27;;;1.90;;
77206;SDS011;66190;50.708;7.906;2023-01-13T13:15:24;7.68;;;1.80;;
77206;SDS011;66190;50.708;7.906;2023-01-13T13:29:14;9.88;;;1.95;;
77206;SDS011;66190;50.708;7.906;2023-01-13T13:40:39;11.10;;;2.65;;
77206;SDS011;66190;50.708;7.906;2023-01-13T13:43:26;9.57;;;1.38;;
77206;SDS011;66190;50.708;7.906;2023-01-13T13:46:20;10.23;;;1.35;;
77206;SDS011;66190;50.708;7.906;2023-01-13T13:49:19;14.40;;;1.67;;
77206;SDS011;66190;50.708;7.906;2023-01-13T13:54:44;8.90;;;1.50;;
77206;SDS011;66190;50.708;7.906;2023-01-13T13:57:16;11.02;;;2.42;;
77206;SDS011;66190;50.708;7.906;2023-01-13T13:59:52;9.60;;;1.40;;
77206;SDS011;66190;50.708;7.906;2023-01-13T14:02:23;6.27;;;1.13;;
77206;SDS011;66190;50.708;7.906;2023-01-13T14:07:47;9.02;;;1.52;;
77206;SDS011;66190;50.708;7.906;2023-01-13T14:10:22;8.90;;;1.15;;
77206;SDS011;66190;50.708;7.906;2023-01-13T14:12:55;9.32;;;1.30;;
77206;SDS011;66190;50.708;7.906;2023-01-13T14:17:52;7.68;;;1.52;;
77206;SDS011;66190;50.708;7.906;2023-01-13T14:20:18;11.98;;;2.00;;
77206;SDS011;66190;50.708;7.906;2023-01-13T14:22:47;10.38;;;1.77;;
77206;SDS011;66190;50.708;7.906;2023-01-13T14:25:25;16.50;;;3.80;;
77206;SDS011;66190;50.708;7.906;2023-01-13T14:30:49;7.63;;;1.73;;
77206;SDS011;66190;50.708;7.906;2023-01-13T14:33:17;9.85;;;2.15;;
77206;SDS011;66190;50.708;7.906;2023-01-13T14:38:30;9.17;;;2.00;;
77206;SDS011;66190;50.708;7.906;2023-01-13T14:40:56;7.45;;;2.05;;
77206;SDS011;66190;50.708;7.906;2023-01-13T14:43:23;10.40;;;1.90;;
77206;SDS011;66190;50.708;7.906;2023-01-13T14:45:54;15.30;;;2.27;;
77206;SDS011;66190;50.708;7.906;2023-01-13T14:48:22;6.57;;;1.77;;
77206;SDS011;66190;50.708;7.906;2023-01-13T14:50:57;11.38;;;3.08;;
77206;SDS011;66190;50.708;7.906;2023-01-13T14:53:28;11.70;;;2.22;;
77206;SDS011;66190;50.708;7.906;2023-01-13T14:59:32;14.43;;;2.40;;
77206;SDS011;66190;50.708;7.906;2023-01-13T15:02:01;11.48;;;3.38;;
77206;SDS011;66190;50.708;7.906;2023-01-13T15:04:47;11.13;;;2.85;;
77206;SDS011;66190;50.708;7.906;2023-01-13T15:07:16;6.72;;;1.58;;
77206;SDS011;66190;50.708;7.906;2023-01-13T15:09:51;13.13;;;3.97;;
77206;SDS011;66190;50.708;7.906;2023-01-13T15:12:37;8.93;;;1.90;;
77206;SDS011;66190;50.708;7.906;2023-01-13T15:15:50;13.13;;;1.80;;
77206;SDS011;66190;50.708;7.906;2023-01-13T15:17:51;11.02;;;1.73;;
77206;SDS011;66190;50.708;7.906;2023-01-13T15:20:17;7.30;;;1.13;;
77206;SDS011;66190;50.708;7.906;2023-01-13T15:22:45;13.38;;;3.67;;
77206;SDS011;66190;50.708;7.906;2023-01-13T15:25:11;12.80;;;2.37;;
77206;SDS011;66190;50.708;7.906;2023-01-13T15:27:39;11.57;;;2.40;;
77206;SDS011;66190;50.708;7.906;2023-01-13T15:32:43;16.55;;;3.58;;
77206;SDS011;66190;50.708;7.906;2023-01-13T15:35:11;8.93;;;2.45;;
77206;SDS011;66190;50.708;7.906;2023-01-13T15:37:38;8.47;;;2.40;;
77206;SDS011;66190;50.708;7.906;2023-01-13T15:40:10;10.20;;;4.63;;
77206;SDS011;66190;50.708;7.906;2023-01-13T15:42:44;8.00;;;1.92;;
77206;SDS011;66190;50.708;7.906;2023-01-13T15:45:30;6.85;;;1.63;;
77206;SDS011;66190;50.708;7.906;2023-01-13T15:48:21;9.13;;;2.15;;
77206;SDS011;66190;50.708;7.906;2023-01-13T15:50:48;8.53;;;2.00;;
77206;SDS011;66190;50.708;7.906;2023-01-13T15:53:13;7.78;;;2.45;;
77206;SDS011;66190;50.708;7.906;2023-01-13T15:55:40;8.43;;;2.70;;
77206;SDS011;66190;50.708;7.906;2023-01-13T15:58:09;10.33;;;2.23;;
77206;SDS011;66190;50.708;7.906;2023-01-13T16:00:36;10.85;;;2.22;;
77206;SDS011;66190;50.708;7.906;2023-01-13T16:03:02;8.82;;;1.70;;
77206;SDS011;66190;50.708;7.906;2023-01-13T16:05:28;12.27;;;1.73;;
77206;SDS011;66190;50.708;7.906;2023-01-13T16:07:54;9.45;;;2.80;;
77206;SDS011;66190;50.708;7.906;2023-01-13T16:10:21;10.32;;;1.70;;
77206;SDS011;66190;50.708;7.906;2023-01-13T16:12:52;15.87;;;1.97;;
77206;SDS011;66190;50.708;7.906;2023-01-13T16:15:20;13.63;;;1.80;;
77206;SDS011;66190;50.708;7.906;2023-01-13T16:17:57;10.35;;;1.77;;
77206;SDS011;66190;50.708;7.906;2023-01-13T16:20:24;11.15;;;1.75;;
77206;SDS011;66190;50.708;7.906;2023-01-13T16:22:51;11.00;;;2.10;;
77206;SDS011;66190;50.708;7.906;2023-01-13T16:25:20;11.90;;;1.87;;
77206;SDS011;66190;50.708;7.906;2023-01-13T16:27:47;10.13;;;1.92;;
77206;SDS011;66190;50.708;7.906;2023-01-13T16:30:19;13.55;;;1.58;;
77206;SDS011;66190;50.708;7.906;2023-01-13T16:32:57;14.00;;;3.65;;
77206;SDS011;66190;50.708;7.906;2023-01-13T16:35:23;13.00;;;3.20;;
77206;SDS011;66190;50.708;7.906;2023-01-13T16:37:49;9.73;;;2.33;;
77206;SDS011;66190;50.708;7.906;2023-01-13T16:40:32;6.95;;;1.10;;
77206;SDS011;66190;50.708;7.906;2023-01-13T16:43:00;9.63;;;1.83;;
77206;SDS011;66190;50.708;7.906;2023-01-13T16:45:27;10.03;;;1.80;;
77206;SDS011;66190;50.708;7.906;2023-01-13T16:47:54;9.52;;;2.38;;
77206;SDS011;66190;50.708;7.906;2023-01-13T16:52:55;10.90;;;2.20;;
77206;SDS011;66190;50.708;7.906;2023-01-13T16:55:21;13.83;;;3.20;;
77206;SDS011;66190;50.708;7.906;2023-01-13T16:57:47;8.90;;;2.23;;
77206;SDS011;66190;50.708;7.906;2023-01-13T17:00:12;6.82;;;2.17;;
77206;SDS011;66190;50.708;7.906;2023-01-13T17:02:39;12.70;;;2.58;;
77206;SDS011;66190;50.708;7.906;2023-01-13T17:05:05;11.63;;;2.60;;
77206;SDS011;66190;50.708;7.906;2023-01-13T17:07:31;10.68;;;2.35;;
77206;SDS011;66190;50.708;7.906;2023-01-13T17:09:57;8.20;;;1.98;;
77206;SDS011;66190;50.708;7.906;2023-01-13T17:12:23;9.67;;;2.00;;
77206;SDS011;66190;50.708;7.906;2023-01-13T17:14:48;10.20;;;1.90;;
77206;SDS011;66190;50.708;7.906;2023-01-13T17:17:21;10.27;;;1.47;;
77206;SDS011;66190;50.708;7.906;2023-01-13T17:19:51;10.50;;;3.13;;
77206;SDS011;66190;50.708;7.906;2023-01-13T17:22:17;9.73;;;2.00;;
77206;SDS011;66190;50.708;7.906;2023-01-13T17:24:43;11.03;;;3.27;;
77206;SDS011;66190;50.708;7.906;2023-01-13T17:27:09;8.40;;;2.53;;
77206;SDS011;66190;50.708;7.906;2023-01-13T17:29:35;12.00;;;3.30;;